Lafayette, Ohio
Current Conditions -  °F | °C
As of 11:53 PM on Friday 24 Oct 2014 (Local Time) from KAOH Reporting Station
Clear Clear  
Wind Chill: 53°   Ceiling: Unl
Heat Index: 53°   Visibility: 9mi
Dew Point: 45°   Wind: 6mph
Humidity: 74%   Direction: 210°SSW
Pressure: 30"   Gusts: NA
Location:  40.76°N, 83.95°W
Report Text: KAOH 250353Z AUTO 21005KT 9SM CLR 12/07 A3000 RMK AO2 SLP159 T01170072
Loading
Personal Weather Stations






























Interactive Weather Map
Tropical Storm Tracking
New forecast layout! Learn more

10-Day Weather Forecast

Advertisements
Track Severe Weather on mobile